createdAt,value
2022-09-28T00:01:25.400Z,9.40
2022-09-28T00:04:11.600Z,9.40
2022-09-28T00:06:57.097Z,9.50
2022-09-28T00:09:43.428Z,9.50
2022-09-28T00:12:29.798Z,9.60
2022-09-28T00:15:15.671Z,9.60
2022-09-28T00:18:01.089Z,9.70
2022-09-28T00:20:46.487Z,9.80
2022-09-28T00:23:32.698Z,9.80
2022-09-28T00:26:18.257Z,9.80
2022-09-28T00:29:04.501Z,9.80
2022-09-28T00:31:52.837Z,9.90
2022-09-28T00:34:45.777Z,9.90
2022-09-28T00:37:30.951Z,9.80
2022-09-28T00:40:16.558Z,9.80
2022-09-28T00:43:18.482Z,9.90
2022-09-28T00:46:12.860Z,9.80
2022-09-28T00:49:05.698Z,9.80
2022-09-28T00:51:51.332Z,9.80
2022-09-28T00:54:36.954Z,9.90
2022-09-28T00:57:23.178Z,9.90
2022-09-28T01:00:09.103Z,9.90
2022-09-28T01:02:55.063Z,9.90
2022-09-28T01:05:40.976Z,10.00
2022-09-28T01:08:27.845Z,10.00
2022-09-28T01:11:12.969Z,9.90
2022-09-28T01:14:00.021Z,9.90
2022-09-28T01:17:04.572Z,9.90
2022-09-28T01:20:19.493Z,10.00
2022-09-28T01:23:24.034Z,9.90
2022-09-28T01:26:47.172Z,9.90
2022-09-28T01:29:46.013Z,9.90
2022-09-28T01:32:43.849Z,10.00
2022-09-28T01:35:40.353Z,10.00
2022-09-28T01:38:28.996Z,10.00
2022-09-28T01:41:17.520Z,10.10
2022-09-28T01:44:06.023Z,10.10
2022-09-28T01:46:53.500Z,10.20
2022-09-28T01:50:03.920Z,10.20
2022-09-28T01:52:53.761Z,10.10
2022-09-28T01:56:02.207Z,10.20
2022-09-28T01:58:55.359Z,10.20
2022-09-28T02:01:54.588Z,10.20
2022-09-28T02:05:02.058Z,10.20
2022-09-28T02:08:03.855Z,10.20
2022-09-28T02:10:57.750Z,10.20
2022-09-28T02:13:45.916Z,10.20
2022-09-28T02:16:41.377Z,10.20
2022-09-28T02:19:28.733Z,10.20
2022-09-28T02:22:28.785Z,10.20
2022-09-28T02:25:25.155Z,10.20
2022-09-28T02:28:13.464Z,10.10
2022-09-28T02:30:58.986Z,10.20
2022-09-28T02:33:44.947Z,10.20
2022-09-28T02:36:30.647Z,10.30
2022-09-28T02:39:17.844Z,10.30
2022-09-28T02:42:25.635Z,10.30
2022-09-28T02:45:34.047Z,10.30
2022-09-28T02:49:24.077Z,10.30
2022-09-28T02:52:33.022Z,10.30
2022-09-28T02:55:29.085Z,10.30
2022-09-28T02:58:24.140Z,10.30
2022-09-28T03:01:18.456Z,10.30
2022-09-28T03:04:21.710Z,10.40
2022-09-28T03:07:26.236Z,10.40
2022-09-28T03:10:22.478Z,10.40
2022-09-28T03:13:09.111Z,10.40
2022-09-28T03:16:23.806Z,10.30
2022-09-28T03:19:09.469Z,10.40
2022-09-28T03:21:55.692Z,10.30
2022-09-28T03:24:41.337Z,10.40
2022-09-28T03:27:26.833Z,10.40
2022-09-28T03:30:12.980Z,10.40
2022-09-28T03:33:00.362Z,10.40
2022-09-28T03:35:50.541Z,10.40
2022-09-28T03:38:36.061Z,10.30
2022-09-28T03:41:21.955Z,10.30
2022-09-28T03:44:07.560Z,10.40
2022-09-28T03:46:53.139Z,10.40
2022-09-28T03:49:38.745Z,10.40
2022-09-28T03:52:24.227Z,10.40
2022-09-28T03:55:10.823Z,10.40
2022-09-28T03:57:56.448Z,10.30
2022-09-28T04:00:42.051Z,10.30
2022-09-28T04:03:27.570Z,10.20
2022-09-28T04:06:13.547Z,10.30
2022-09-28T04:08:59.208Z,10.30
2022-09-28T04:12:02.894Z,10.20
2022-09-28T04:14:48.934Z,10.30
2022-09-28T04:17:39.194Z,10.40
2022-09-28T04:20:25.339Z,10.30
2022-09-28T04:23:10.710Z,10.30
2022-09-28T04:25:56.483Z,10.20
2022-09-28T04:29:06.177Z,10.20
2022-09-28T04:31:54.316Z,10.20
2022-09-28T04:34:43.764Z,10.10
2022-09-28T04:37:31.290Z,10.20
2022-09-28T04:40:16.883Z,10.20
2022-09-28T04:43:02.306Z,10.20
2022-09-28T04:45:47.874Z,10.20
2022-09-28T04:48:33.451Z,10.20
2022-09-28T04:51:18.861Z,10.20
2022-09-28T04:54:04.342Z,10.20
2022-09-28T04:56:49.972Z,10.20
2022-09-28T04:59:37.764Z,10.20
2022-09-28T05:02:24.806Z,10.20
2022-09-28T05:05:10.141Z,10.20
2022-09-28T05:07:58.993Z,10.20
2022-09-28T05:10:44.791Z,10.20
2022-09-28T05:13:31.518Z,10.20
2022-09-28T05:16:17.444Z,10.20
2022-09-28T05:19:02.845Z,10.20
2022-09-28T05:21:49.135Z,10.20
2022-09-28T05:24:34.365Z,10.20
2022-09-28T05:27:19.955Z,10.20
2022-09-28T05:30:05.928Z,10.20
2022-09-28T05:32:51.630Z,10.20
2022-09-28T05:35:37.575Z,10.20
2022-09-28T05:38:23.625Z,10.10
2022-09-28T05:41:09.043Z,10.10
2022-09-28T05:43:55.030Z,10.10
2022-09-28T05:46:40.435Z,10.10
2022-09-28T05:49:29.083Z,10.10
2022-09-28T05:52:14.532Z,10.10
2022-09-28T05:54:59.644Z,10.20
2022-09-28T05:57:45.177Z,10.20
2022-09-28T06:00:32.260Z,10.20
2022-09-28T06:03:17.652Z,10.20
2022-09-28T06:06:03.548Z,10.20
2022-09-28T06:08:49.437Z,10.30
2022-09-28T06:11:34.760Z,10.30
2022-09-28T06:14:20.371Z,10.30
2022-09-28T06:17:05.518Z,10.30
2022-09-28T06:19:52.345Z,10.30
2022-09-28T06:22:38.792Z,10.30
2022-09-28T06:25:27.695Z,10.20
2022-09-28T06:28:14.783Z,10.20
2022-09-28T06:31:01.679Z,10.20
2022-09-28T06:33:48.864Z,10.10
2022-09-28T06:36:34.438Z,10.10
2022-09-28T06:39:20.072Z,10.00
2022-09-28T06:42:06.523Z,10.10
2022-09-28T06:44:52.323Z,10.00
2022-09-28T06:47:38.267Z,10.10
2022-09-28T06:50:29.191Z,10.10
2022-09-28T06:53:14.971Z,10.00
2022-09-28T06:56:00.717Z,10.10
2022-09-28T06:58:46.338Z,10.10
2022-09-28T07:01:31.913Z,10.10
2022-09-28T07:04:17.613Z,10.20
2022-09-28T07:07:02.925Z,10.20
2022-09-28T07:09:52.309Z,10.30
2022-09-28T07:12:40.601Z,10.20
2022-09-28T07:15:26.209Z,10.20
2022-09-28T07:18:12.498Z,10.40
2022-09-28T07:20:58.178Z,10.40
2022-09-28T07:23:52.947Z,10.40
2022-09-28T07:26:39.286Z,10.50
2022-09-28T07:29:25.884Z,10.50
2022-09-28T07:32:11.491Z,10.50
2022-09-28T07:34:58.917Z,10.60
2022-09-28T07:37:44.695Z,10.60
2022-09-28T07:40:49.897Z,10.70
2022-09-28T07:43:35.425Z,10.70
2022-09-28T07:46:21.257Z,10.90
2022-09-28T07:49:09.776Z,10.90
2022-09-28T07:51:57.637Z,10.80
2022-09-28T07:54:43.145Z,10.80
2022-09-28T07:57:29.175Z,10.80
2022-09-28T08:00:15.059Z,10.80
2022-09-28T08:03:04.083Z,10.80
2022-09-28T08:05:49.816Z,10.80
2022-09-28T08:08:35.814Z,10.90
2022-09-28T08:11:21.288Z,10.80
2022-09-28T08:14:06.387Z,10.70
2022-09-28T08:16:53.371Z,10.80
2022-09-28T08:19:57.017Z,10.90
2022-09-28T08:22:42.557Z,11.00
2022-09-28T08:25:28.304Z,11.10
2022-09-28T08:28:13.648Z,11.20
2022-09-28T08:31:01.631Z,11.20
2022-09-28T08:33:47.730Z,11.10
2022-09-28T08:36:34.409Z,11.10
2022-09-28T08:39:19.932Z,11.10
2022-09-28T08:42:05.340Z,11.10
2022-09-28T08:44:57.708Z,11.10
2022-09-28T08:48:15.470Z,11.20
2022-09-28T08:51:15.525Z,11.30
2022-09-28T08:54:24.440Z,11.40
2022-09-28T08:57:18.980Z,11.50
2022-09-28T09:00:10.935Z,11.40
2022-09-28T09:02:56.961Z,11.40
2022-09-28T09:05:56.353Z,11.40
2022-09-28T09:09:11.125Z,11.40
2022-09-28T09:12:05.467Z,11.60
2022-09-28T09:15:39.069Z,11.80
2022-09-28T09:18:38.228Z,11.90
2022-09-28T09:21:39.933Z,12.10
2022-09-28T09:24:51.907Z,12.20
2022-09-28T09:27:50.470Z,12.30
2022-09-28T09:30:57.270Z,12.20
2022-09-28T09:34:01.050Z,12.10
2022-09-28T09:37:00.864Z,12.00
2022-09-28T09:40:01.146Z,12.20
2022-09-28T09:43:06.253Z,12.30
2022-09-28T09:46:10.420Z,12.40
2022-09-28T09:49:00.921Z,12.50
2022-09-28T09:51:49.016Z,12.50
2022-09-28T09:54:47.122Z,12.60
2022-09-28T09:57:40.486Z,12.70
2022-09-28T10:00:25.765Z,12.80
2022-09-28T10:03:19.920Z,12.90
2022-09-28T10:06:46.491Z,13.00
2022-09-28T10:09:44.584Z,13.10
2022-09-28T10:12:31.140Z,13.10
2022-09-28T10:15:22.478Z,13.20
2022-09-28T10:18:12.412Z,13.40
2022-09-28T10:20:57.590Z,13.40
2022-09-28T10:23:44.708Z,13.40
2022-09-28T10:26:41.567Z,13.50
2022-09-28T10:29:39.072Z,13.50
2022-09-28T10:32:27.455Z,13.60
2022-09-28T10:35:22.073Z,13.70
2022-09-28T10:38:16.839Z,13.80
2022-09-28T10:41:10.929Z,13.70
2022-09-28T10:44:06.632Z,13.80
2022-09-28T10:47:19.663Z,13.60
2022-09-28T10:50:25.104Z,13.70
2022-09-28T10:53:16.165Z,13.90
2022-09-28T10:56:20.406Z,14.00
2022-09-28T10:59:28.466Z,14.20
2022-09-28T11:02:30.365Z,14.20
2022-09-28T11:05:23.149Z,14.20
2022-09-28T11:08:18.629Z,14.30
2022-09-28T11:11:08.826Z,14.30
2022-09-28T11:13:57.759Z,14.30
2022-09-28T11:16:44.486Z,14.30
2022-09-28T11:19:29.772Z,14.40
2022-09-28T11:22:29.048Z,14.30
2022-09-28T11:25:17.497Z,14.20
2022-09-28T11:28:04.849Z,14.20
2022-09-28T11:30:52.968Z,14.10
2022-09-28T11:33:41.760Z,14.00
2022-09-28T11:36:51.527Z,14.10
2022-09-28T11:40:02.723Z,14.30
2022-09-28T11:43:15.791Z,14.30
2022-09-28T11:46:15.670Z,14.20
2022-09-28T11:49:09.251Z,14.30
2022-09-28T11:51:59.435Z,14.30
2022-09-28T11:54:50.775Z,14.40
2022-09-28T11:57:39.334Z,14.30
2022-09-28T12:00:25.116Z,14.40
2022-09-28T12:03:51.957Z,14.40
2022-09-28T12:07:18.898Z,14.30
2022-09-28T12:10:21.388Z,14.30
2022-09-28T12:13:14.243Z,14.40
2022-09-28T12:19:22.529Z,14.40
2022-09-28T12:22:23.024Z,14.40
2022-09-28T12:25:14.977Z,14.50
2022-09-28T12:28:06.664Z,14.60
2022-09-28T12:30:53.292Z,14.70
2022-09-28T12:33:46.330Z,14.70
2022-09-28T12:36:50.420Z,14.60
2022-09-28T12:40:08.556Z,14.60
2022-09-28T12:43:08.119Z,14.80
2022-09-28T12:46:15.536Z,14.80
2022-09-28T12:52:49.463Z,14.70
2022-09-28T12:55:55.942Z,14.60
2022-09-28T12:59:02.971Z,14.80
2022-09-28T13:01:58.331Z,14.90
2022-09-28T13:05:01.625Z,14.80
2022-09-28T13:08:03.577Z,14.80
2022-09-28T13:11:07.876Z,14.60
2022-09-28T13:14:19.578Z,14.60
2022-09-28T13:17:37.780Z,14.50
2022-09-28T13:20:39.257Z,14.30
2022-09-28T13:23:37.602Z,14.30
2022-09-28T13:26:35.315Z,14.30
2022-09-28T13:29:22.266Z,14.30
2022-09-28T13:32:09.564Z,14.10
2022-09-28T13:34:55.409Z,14.10
2022-09-28T13:37:41.461Z,14.20
2022-09-28T13:41:05.036Z,14.30
2022-09-28T13:43:50.224Z,14.30
2022-09-28T13:47:03.539Z,14.40
2022-09-28T13:50:03.833Z,14.50
2022-09-28T13:53:16.889Z,14.50
2022-09-28T13:56:13.977Z,14.40
2022-09-28T13:59:17.782Z,14.30
2022-09-28T14:02:28.907Z,14.20
2022-09-28T14:05:23.429Z,14.10
2022-09-28T14:08:08.880Z,14.10
2022-09-28T14:11:17.446Z,14.10
2022-09-28T14:14:11.769Z,14.20
2022-09-28T14:17:19.396Z,14.10
2022-09-28T14:20:16.531Z,14.10
2022-09-28T14:23:10.725Z,14.20
2022-09-28T14:26:26.297Z,14.20
2022-09-28T14:29:29.497Z,14.30
2022-09-28T14:32:24.734Z,14.30
2022-09-28T14:35:33.869Z,14.40
2022-09-28T14:38:41.432Z,14.40
2022-09-28T14:41:39.534Z,14.40
2022-09-28T14:44:25.227Z,14.50
2022-09-28T14:47:44.623Z,14.70
2022-09-28T14:50:30.372Z,14.90
2022-09-28T14:53:20.953Z,14.90
2022-09-28T14:56:08.788Z,14.90
2022-09-28T14:58:56.921Z,14.70
2022-09-28T15:01:51.422Z,14.60
2022-09-28T15:05:01.985Z,14.60
2022-09-28T15:07:52.604Z,14.50
2022-09-28T15:10:42.146Z,14.50
2022-09-28T15:13:29.978Z,14.60
2022-09-28T15:16:22.520Z,14.60
2022-09-28T15:19:22.792Z,14.40
2022-09-28T15:22:20.195Z,14.40
2022-09-28T15:25:19.904Z,14.50
2022-09-28T15:28:19.486Z,14.50
2022-09-28T15:31:05.478Z,14.40
2022-09-28T15:34:08.984Z,14.30
2022-09-28T15:36:56.332Z,14.30
2022-09-28T15:39:44.515Z,14.30
2022-09-28T15:42:36.709Z,14.10
2022-09-28T15:45:38.502Z,13.80
2022-09-28T15:48:33.388Z,13.50
2022-09-28T15:51:21.390Z,13.20
2022-09-28T15:54:19.844Z,13.10
2022-09-28T15:57:05.661Z,12.90
2022-09-28T15:59:56.926Z,12.70
2022-09-28T16:03:17.147Z,12.60
2022-09-28T16:06:08.802Z,12.50
2022-09-28T16:08:54.359Z,12.50
2022-09-28T16:11:41.261Z,12.40
2022-09-28T16:14:27.304Z,12.30
2022-09-28T16:17:32.786Z,12.10
2022-09-28T16:20:27.756Z,12.00
2022-09-28T16:23:16.200Z,11.90
2022-09-28T16:26:16.169Z,11.90
2022-09-28T16:29:25.895Z,11.90
2022-09-28T16:32:26.827Z,11.80
2022-09-28T16:35:30.944Z,11.90
2022-09-28T16:38:18.856Z,11.80
2022-09-28T16:41:05.243Z,11.70
2022-09-28T16:43:55.188Z,11.60
2022-09-28T16:46:41.633Z,11.50
2022-09-28T16:49:26.819Z,11.50
2022-09-28T16:52:12.625Z,11.50
2022-09-28T16:55:38.788Z,11.40
2022-09-28T16:58:22.311Z,11.40
2022-09-28T17:01:10.273Z,11.30
2022-09-28T17:03:56.009Z,11.30
2022-09-28T17:06:41.163Z,11.30
2022-09-28T17:09:26.624Z,11.30
2022-09-28T17:12:22.872Z,11.40
2022-09-28T17:15:08.432Z,11.30
2022-09-28T17:17:55.752Z,11.30
2022-09-28T17:20:44.973Z,11.20
2022-09-28T17:23:30.611Z,11.20
2022-09-28T17:26:27.260Z,11.20
2022-09-28T17:29:14.690Z,11.00
2022-09-28T17:32:00.114Z,11.00
2022-09-28T17:34:55.929Z,11.00
2022-09-28T17:37:46.395Z,11.00
2022-09-28T17:40:31.845Z,10.90
2022-09-28T17:43:17.522Z,10.80
2022-09-28T17:46:03.730Z,10.80
2022-09-28T17:48:49.087Z,10.70
2022-09-28T17:51:37.596Z,10.70
2022-09-28T17:54:23.326Z,10.60
2022-09-28T17:57:10.163Z,10.60
2022-09-28T17:59:55.670Z,10.60
2022-09-28T18:02:41.616Z,10.60
2022-09-28T18:05:28.276Z,10.50
2022-09-28T18:08:19.530Z,10.50
2022-09-28T18:11:05.122Z,10.50
2022-09-28T18:13:50.242Z,10.40
2022-09-28T18:16:36.747Z,10.40
2022-09-28T18:19:22.147Z,10.40
2022-09-28T18:22:07.509Z,10.40
2022-09-28T18:24:53.311Z,10.40
2022-09-28T18:27:38.795Z,10.30
2022-09-28T18:30:24.976Z,10.30
2022-09-28T18:33:12.048Z,10.30
2022-09-28T18:35:57.531Z,10.30
2022-09-28T18:38:43.096Z,10.20
2022-09-28T18:41:29.392Z,10.20
2022-09-28T18:44:14.805Z,10.20
2022-09-28T18:47:02.336Z,10.10
2022-09-28T18:49:47.863Z,10.10
2022-09-28T18:52:36.517Z,10.00
2022-09-28T18:55:22.239Z,10.10
2022-09-28T18:58:09.192Z,10.10
2022-09-28T19:01:08.455Z,10.10
2022-09-28T19:04:06.440Z,10.00
2022-09-28T19:06:52.384Z,10.00
2022-09-28T19:09:40.670Z,9.90
2022-09-28T19:12:26.368Z,9.90
2022-09-28T19:15:11.762Z,9.90
2022-09-28T19:17:58.019Z,9.90
2022-09-28T19:20:44.630Z,9.90
2022-09-28T19:23:30.176Z,9.90
2022-09-28T19:26:21.391Z,9.80
2022-09-28T19:29:07.090Z,9.70
2022-09-28T19:31:52.527Z,9.60
2022-09-28T19:34:38.207Z,9.70
2022-09-28T19:37:23.629Z,9.60
2022-09-28T19:40:09.481Z,9.50
2022-09-28T19:42:54.769Z,9.50
2022-09-28T19:45:40.995Z,9.50
2022-09-28T19:48:27.981Z,9.50
2022-09-28T19:51:13.391Z,9.50
2022-09-28T19:54:01.893Z,9.50
2022-09-28T19:56:48.235Z,9.50
2022-09-28T19:59:34.080Z,9.50
2022-09-28T20:02:20.131Z,9.50
2022-09-28T20:05:06.153Z,9.50
2022-09-28T20:07:51.414Z,9.40
2022-09-28T20:10:37.221Z,9.40
2022-09-28T20:13:24.388Z,9.30
2022-09-28T20:16:15.538Z,9.30
2022-09-28T20:19:03.329Z,9.20
2022-09-28T20:21:49.596Z,9.20
2022-09-28T20:24:35.168Z,9.20
2022-09-28T20:27:24.353Z,9.10
2022-09-28T20:30:12.919Z,9.10
2022-09-28T20:32:58.518Z,9.10
2022-09-28T20:35:44.593Z,9.10
2022-09-28T20:38:30.235Z,9.10
2022-09-28T20:41:19.688Z,9.00
2022-09-28T20:44:06.731Z,9.00
2022-09-28T20:46:52.468Z,8.90
2022-09-28T20:49:37.834Z,8.80
2022-09-28T20:52:23.352Z,8.80
2022-09-28T20:55:09.286Z,8.80
2022-09-28T20:57:54.984Z,8.80
2022-09-28T21:00:40.531Z,8.80
2022-09-28T21:03:26.051Z,8.80
2022-09-28T21:06:12.483Z,8.70
2022-09-28T21:08:58.743Z,8.70
2022-09-28T21:11:44.344Z,8.70
2022-09-28T21:14:30.186Z,8.60
2022-09-28T21:17:15.449Z,8.50
2022-09-28T21:20:01.443Z,8.50
2022-09-28T21:22:46.723Z,8.40
2022-09-28T21:25:32.513Z,8.30
2022-09-28T21:28:18.330Z,8.20
2022-09-28T21:31:07.138Z,8.20
2022-09-28T21:33:52.743Z,8.20
2022-09-28T21:36:38.371Z,8.10
2022-09-28T21:39:24.054Z,8.10
2022-09-28T21:42:09.221Z,8.10
2022-09-28T21:44:58.819Z,8.10
2022-09-28T21:47:52.617Z,8.00
2022-09-28T21:50:37.960Z,7.90
2022-09-28T21:53:28.947Z,7.90
2022-09-28T21:56:14.499Z,7.80
2022-09-28T21:59:01.386Z,7.80
2022-09-28T22:01:48.122Z,7.70
2022-09-28T22:04:33.733Z,7.70
2022-09-28T22:07:19.468Z,7.70
2022-09-28T22:10:06.479Z,7.70
2022-09-28T22:12:51.790Z,7.60
2022-09-28T22:15:37.380Z,7.50
2022-09-28T22:18:22.955Z,7.50
2022-09-28T22:21:29.360Z,7.40
2022-09-28T22:24:15.166Z,7.40
2022-09-28T22:27:00.588Z,7.40
2022-09-28T22:29:46.074Z,7.30
2022-09-28T22:32:31.725Z,7.30
2022-09-28T22:35:17.140Z,7.30
2022-09-28T22:38:02.803Z,7.30
2022-09-28T22:40:58.227Z,7.30
2022-09-28T22:43:43.849Z,7.20
2022-09-28T22:46:31.929Z,7.20
2022-09-28T22:49:17.602Z,7.10
2022-09-28T22:52:03.363Z,7.10
2022-09-28T22:54:51.256Z,7.10
2022-09-28T22:57:36.897Z,7.10
2022-09-28T23:00:22.509Z,7.10
2022-09-28T23:03:08.427Z,7.10
2022-09-28T23:05:54.992Z,7.10
2022-09-28T23:08:40.228Z,7.10
2022-09-28T23:11:25.544Z,7.20
2022-09-28T23:14:12.519Z,7.20
2022-09-28T23:16:58.297Z,7.20
2022-09-28T23:19:43.625Z,7.10
2022-09-28T23:22:29.302Z,7.20
2022-09-28T23:25:15.806Z,7.10
2022-09-28T23:28:01.241Z,7.10
2022-09-28T23:30:47.300Z,7.30
2022-09-28T23:33:32.689Z,7.40
2022-09-28T23:36:18.416Z,7.40
2022-09-28T23:39:04.369Z,7.40
2022-09-28T23:41:50.539Z,7.50
2022-09-28T23:44:36.465Z,7.50
2022-09-28T23:47:21.967Z,7.50
2022-09-28T23:50:08.007Z,7.40
2022-09-28T23:52:53.228Z,7.50
2022-09-28T23:55:38.878Z,7.40
2022-09-28T23:58:25.748Z,7.50
